Time;durP1;ratioP1;P1;durP2;ratioP2;P2;SDS_P1;SDS_P2;PMS_P1;PMS_P2;Temp;Humidity;BMP_temperature;BMP_pressure;BME280_temperature;BME280_humidity;BME280_pressure;Samples;Min_cycle;Max_cycle;Signal;HPM_P1;HPM_P2
2022/01/25 00:08:38;;;;;;;88.05;32.13;;;;;;;-1.95;87.24;94064.41;4963714;28;20034;-88
2022/01/25 00:24:47;;;;;;;106.13;36.88;;;;;;;-1.65;88.92;94061.94;4966492;28;20066;-88
2022/01/25 00:28:18;;;;;;;89.05;33.65;;;;;;;-1.74;88.66;94050.13;4965246;28;20042;-88
2022/01/25 00:30:22;;;;;;;111.53;36.78;;;;;;;-1.64;88.55;94050.72;4957687;28;20108;-88
2022/01/25 00:32:49;;;;;;;100.32;37.08;;;;;;;-1.69;88.85;94032.44;4967730;28;20077;-88
2022/01/25 00:35:17;;;;;;;100.18;33.50;;;;;;;-1.85;88.75;94001.75;4976470;28;20042;-87
2022/01/25 00:37:44;;;;;;;105.68;36.88;;;;;;;-1.42;88.63;94061.91;4989914;28;20039;-89
2022/01/25 00:40:20;;;;;;;101.63;34.58;;;;;;;-1.52;88.23;94039.03;4948218;28;20059;-89
2022/01/25 00:42:45;;;;;;;108.88;36.10;;;;;;;-1.48;88.37;94027.44;4969740;28;20047;-87
2022/01/25 00:45:19;;;;;;;95.10;35.25;;;;;;;-1.71;88.33;93985.63;4956097;28;20035;-87
2022/01/25 00:47:48;;;;;;;98.35;35.42;;;;;;;-1.33;89.00;94027.47;4955824;28;20073;-88
2022/01/25 00:50:21;;;;;;;101.10;34.83;;;;;;;-1.22;88.35;94026.22;4977276;28;20042;-88
2022/01/25 00:53:55;;;;;;;91.75;36.63;;;;;;;-1.42;87.98;93999.47;4971702;28;20047;-88
2022/01/25 00:55:52;;;;;;;103.72;34.53;;;;;;;-1.24;88.03;94020.47;4971160;28;20594;-89
2022/01/25 00:58:20;;;;;;;98.80;34.53;;;;;;;-1.54;87.84;93971.63;4971113;28;20045;-88
2022/01/25 01:00:53;;;;;;;100.13;35.67;;;;;;;-1.04;88.35;94043.88;4962154;28;20068;-89
2022/01/25 01:03:21;;;;;;;138.07;37.20;;;;;;;-1.37;87.67;93976.63;4977608;28;20133;-88
2022/01/25 01:05:54;;;;;;;121.95;38.15;;;;;;;-1.43;88.47;93979.91;4962368;28;20041;-88
2022/01/25 01:08:27;;;;;;;91.80;34.67;;;;;;;-1.42;88.23;93982.25;4977866;28;20038;-88
2022/01/25 01:11:09;;;;;;;109.63;37.22;;;;;;;-1.29;88.42;93997.09;4993274;28;20044;-88
2022/01/25 01:14:00;;;;;;;129.88;39.05;;;;;;;-1.17;88.31;94018.00;4991655;28;20038;-88
2022/01/25 01:16:47;;;;;;;119.13;38.15;;;;;;;-1.39;88.00;93976.00;4958602;28;20093;-88
2022/01/25 01:48:04;;;;;;;99.40;34.25;;;;;;;-0.73;87.18;94043.72;4997164;28;20030;-88
2022/01/25 01:50:32;;;;;;;108.03;36.42;;;;;;;-0.89;87.50;94018.19;5010680;28;20073;-88
2022/01/25 01:52:59;;;;;;;95.97;35.67;;;;;;;-0.75;87.23;94032.00;4967900;28;20040;-89
2022/01/25 01:55:26;;;;;;;101.68;37.08;;;;;;;-0.99;86.65;93984.22;4978987;28;20033;-89
2022/01/25 01:57:57;;;;;;;99.25;35.35;;;;;;;-1.11;87.06;93965.91;4997556;28;20263;-88
2022/01/25 02:00:33;;;;;;;98.10;37.70;;;;;;;-1.09;86.95;93972.44;4997781;28;20044;-88
2022/01/25 02:03:09;;;;;;;97.38;36.17;;;;;;;-1.11;86.77;93966.69;5000149;28;20052;-88
2022/01/25 02:05:37;;;;;;;96.90;35.97;;;;;;;-1.06;86.85;93964.41;4984270;28;20042;-88
2022/01/25 02:08:08;;;;;;;109.15;36.55;;;;;;;-1.00;86.63;93969.78;4981400;28;20037;-88
2022/01/25 02:10:45;;;;;;;99.50;35.60;;;;;;;-1.06;86.21;93966.97;4997382;28;20049;-88
2022/01/25 02:13:17;;;;;;;116.10;35.70;;;;;;;-1.07;86.38;93970.50;4977714;28;20564;-89
2022/01/25 02:16:19;;;;;;;118.65;35.50;;;;;;;-1.12;86.43;93957.41;4962656;28;20123;-88
2022/01/25 02:24:13;;;;;;;96.65;34.53;;;;;;;-0.68;86.44;94018.25;4996357;28;20045;-88
2022/01/25 02:26:38;;;;;;;99.85;35.92;;;;;;;-0.66;86.08;94021.44;4980000;28;20578;-88
2022/01/25 02:29:07;;;;;;;103.75;36.75;;;;;;;-0.90;85.68;93978.00;4979885;28;20482;-88
2022/01/25 02:31:32;;;;;;;93.32;33.55;;;;;;;-1.09;86.43;93959.59;4977301;28;20480;-89
2022/01/25 02:34:07;;;;;;;100.15;34.22;;;;;;;-0.78;86.01;94001.53;4961451;28;20081;-88
2022/01/25 02:36:35;;;;;;;101.88;35.63;;;;;;;-1.10;85.70;93958.00;4977182;28;20085;-88
2022/01/25 02:39:04;;;;;;;106.28;35.38;;;;;;;-0.86;85.59;93986.97;4976765;28;20034;-88
2022/01/25 02:41:30;;;;;;;97.55;35.95;;;;;;;-1.06;85.74;93955.88;4960722;28;20575;-88
2022/01/25 02:43:58;;;;;;;99.03;34.58;;;;;;;-0.65;85.58;94022.25;4973685;28;20113;-88
2022/01/25 02:49:08;;;;;;;101.75;36.30;;;;;;;-1.05;85.52;93949.75;4996013;28;20411;-89
2022/01/25 02:51:48;;;;;;;102.28;35.15;;;;;;;-0.83;85.18;93968.63;4997612;28;20046;-89
2022/01/25 02:54:16;;;;;;;;;;;;;;;-0.59;85.07;94023.28;4995678;28;20092;-88
2022/01/25 02:56:50;;;;;;;103.53;32.83;;;;;;;-1.08;85.31;93955.25;4996014;28;19917;-89
2022/01/25 02:59:21;;;;;;;99.55;35.55;;;;;;;-0.89;84.72;93975.28;4980195;28;20127;-88
2022/01/25 03:01:52;;;;;;;102.15;34.47;;;;;;;-0.91;85.04;93964.38;5013811;28;20046;-89
2022/01/25 03:04:20;;;;;;;102.72;34.95;;;;;;;-1.04;84.77;93951.34;4978950;28;20438;-88
2022/01/25 03:06:53;;;;;;;86.82;33.40;;;;;;;-1.01;84.89;93937.34;4995831;28;20041;-88
2022/01/25 03:09:40;;;;;;;97.20;34.70;;;;;;;-1.03;85.03;93939.31;4995402;28;20041;-88
2022/01/25 03:12:13;;;;;;;98.50;34.45;;;;;;;-1.05;84.61;93940.28;5013283;28;20029;-89
2022/01/25 03:15:02;;;;;;;97.38;34.78;;;;;;;-0.83;84.81;93978.91;4978640;28;20042;-88
2022/01/25 03:17:31;;;;;;;95.22;35.75;;;;;;;-1.09;84.56;93943.38;4975579;28;20061;-88
2022/01/25 03:20:17;;;;;;;96.85;34.03;;;;;;;-1.10;84.35;93942.59;4960574;28;20043;-88
2022/01/25 03:22:56;;;;;;;96.22;32.60;;;;;;;-0.80;84.83;93988.84;4960155;28;20519;-89
2022/01/25 03:25:35;;;;;;;99.88;35.05;;;;;;;-1.13;84.47;93926.72;4967319;28;20038;-88
2022/01/25 03:28:08;;;;;;;92.30;34.80;;;;;;;-1.20;84.31;93926.63;4992111;28;20125;-87
2022/01/25 03:30:39;;;;;;;96.00;34.75;;;;;;;-0.92;84.42;93960.22;4990019;28;20091;-89
2022/01/25 03:33:11;;;;;;;91.60;34.67;;;;;;;-1.16;84.19;93927.88;4963878;28;20046;-88
2022/01/25 03:35:45;;;;;;;92.22;35.45;;;;;;;-0.90;84.30;93972.88;4980076;28;20033;-88
2022/01/25 03:38:15;;;;;;;95.60;36.35;;;;;;;-1.21;84.52;93924.25;4960049;28;20404;-88
2022/01/25 03:40:49;;;;;;;102.85;34.15;;;;;;;-0.97;84.93;93954.00;4957763;28;20133;-89
2022/01/25 03:43:29;;;;;;;;;;;;;;;;;;;;;
2022/01/25 03:46:04;;;;;;;104.35;35.33;;;;;;;-1.02;84.53;93943.47;5012965;28;20030;-88
2022/01/25 03:51:09;;;;;;;90.85;31.98;;;;;;;-0.86;84.43;93963.81;5012715;28;20517;-88
2022/01/25 03:53:35;;;;;;;104.32;34.20;;;;;;;-1.16;84.38;93920.16;4962348;28;20483;-88
2022/01/25 03:56:01;;;;;;;93.60;33.75;;;;;;;-0.96;84.51;93948.69;5011711;28;20038;-89
2022/01/25 03:58:32;;;;;;;103.45;35.42;;;;;;;-1.17;84.72;93910.88;4993553;28;20041;-88
2022/01/25 04:01:00;;;;;;;90.88;33.83;;;;;;;-0.75;84.40;93976.22;5012665;28;20502;-89
2022/01/25 04:03:33;;;;;;;103.57;35.60;;;;;;;-0.88;83.61;93934.94;4979056;28;20066;-88
2022/01/25 04:05:59;;;;;;;96.38;33.72;;;;;;;-0.81;83.67;93953.81;4995624;28;20096;-88
2022/01/25 04:08:37;;;;;;;102.72;34.80;;;;;;;-1.10;83.54;93900.69;4994440;28;20040;-88
2022/01/25 04:11:05;;;;;;;93.90;33.17;;;;;;;-0.75;83.53;93950.50;4995347;28;20046;-88
2022/01/25 04:13:38;;;;;;;90.03;34.05;;;;;;;-0.78;83.43;93945.72;4978732;28;20052;-88
2022/01/25 04:16:11;;;;;;;89.07;32.67;;;;;;;-0.80;83.59;93947.69;4963395;28;20038;-88
2022/01/25 04:25:04;;;;;;;93.20;30.45;;;;;;;-0.64;83.59;93972.41;4918573;29;20416;-89
2022/01/25 04:27:33;;;;;;;93.15;32.22;;;;;;;-0.79;83.82;93946.69;4945954;28;20046;-87
2022/01/25 04:29:59;;;;;;;85.07;32.08;;;;;;;-0.75;83.19;93958.22;4976478;28;20030;-88
2022/01/25 04:32:34;;;;;;;93.28;32.63;;;;;;;-0.77;82.97;93949.09;4960601;28;20195;-88
2022/01/25 04:48:56;;;;;;;97.65;34.83;;;;;;;-0.68;83.79;93971.94;4980171;28;20045;-88
2022/01/25 05:01:54;;;;;;;91.50;32.95;;;;;;;-0.67;83.36;93968.41;4965755;28;20058;-88
2022/01/25 05:04:30;;;;;;;92.22;32.08;;;;;;;-0.73;83.31;93963.97;4979399;28;20045;-88
2022/01/25 05:07:07;;;;;;;116.82;35.30;;;;;;;-0.69;83.32;93967.78;4952032;28;20049;-89
2022/01/25 05:09:41;;;;;;;100.50;31.98;;;;;;;-0.66;83.20;93969.19;4966780;28;20046;-88
2022/01/25 05:12:16;;;;;;;87.45;32.00;;;;;;;-0.76;83.31;93953.28;4981100;28;20054;-89
2022/01/25 05:15:07;;;;;;;92.38;32.47;;;;;;;-0.88;83.16;93937.50;4997052;28;20034;-88
2022/01/25 05:17:42;;;;;;;95.90;32.42;;;;;;;-0.78;83.87;93953.44;4984763;28;20087;-88
2022/01/25 05:22:53;;;;;;;92.20;33.05;;;;;;;-0.96;83.65;93928.13;4980204;28;20043;-89
2022/01/25 05:25:19;;;;;;;87.20;30.85;;;;;;;-0.85;83.35;93944.88;4977990;28;20503;-88
2022/01/25 05:27:55;;;;;;;86.00;31.60;;;;;;;-1.19;83.54;93891.44;4981658;28;20041;-89
2022/01/25 05:30:23;;;;;;;85.78;32.03;;;;;;;-0.79;83.62;93959.56;4977975;28;20502;-89
2022/01/25 05:32:53;;;;;;;89.55;32.78;;;;;;;-0.99;83.86;93932.81;4973493;28;20041;-89
2022/01/25 05:35:19;;;;;;;98.95;34.53;;;;;;;-1.24;83.45;93893.78;5014410;28;20104;-88
2022/01/25 05:37:57;;;;;;;;;;;;;;;;;;;;;
2022/01/25 05:40:40;;;;;;;89.25;30.67;;;;;;;-1.07;83.79;93926.00;4994332;28;20030;-89
2022/01/25 05:46:10;;;;;;;88.05;29.50;;;;;;;-1.47;83.91;93882.63;4988070;28;20073;-90
2022/01/25 05:48:51;;;;;;;87.22;32.55;;;;;;;-1.51;83.90;93883.97;4983507;28;20406;-91
2022/01/25 05:51:59;;;;;;;86.18;29.58;;;;;;;-1.57;83.98;93884.69;5017725;28;20052;-89
2022/01/25 05:58:17;;;;;;;79.30;28.33;;;;;;;-1.14;83.90;93961.13;5017555;28;20067;-89
2022/01/25 06:00:45;;;;;;;78.32;29.30;;;;;;;-1.25;83.75;93944.38;4981924;28;20539;-90
2022/01/25 06:03:22;;;;;;;81.68;30.25;;;;;;;-1.17;83.69;93959.72;4987027;28;20038;-89
2022/01/25 06:05:47;;;;;;;82.38;29.50;;;;;;;-1.19;83.67;93958.25;4966626;28;20048;-89
2022/01/25 06:08:13;;;;;;;96.82;31.05;;;;;;;-1.23;83.61;93950.13;5016835;28;20062;-89
2022/01/25 06:10:41;;;;;;;81.63;29.88;;;;;;;-1.22;83.74;93954.28;5002656;28;20064;-90
2022/01/25 06:13:13;;;;;;;83.03;29.00;;;;;;;-1.46;83.85;93914.25;4999355;28;20459;-90
2022/01/25 06:15:58;;;;;;;82.50;29.00;;;;;;;-1.29;83.84;93948.25;5000479;28;20060;-90
2022/01/25 06:18:24;;;;;;;78.38;29.92;;;;;;;-1.64;83.64;93888.13;4983381;28;20300;-90
2022/01/25 06:20:52;;;;;;;84.88;31.38;;;;;;;-1.63;83.54;93885.38;4982695;28;20467;-89
2022/01/25 06:26:37;;;;;;;85.65;29.23;;;;;;;-1.35;83.79;93930.97;5015988;28;20057;-90
2022/01/25 06:29:08;;;;;;;79.97;29.70;;;;;;;-1.69;83.80;93875.81;4968546;28;20137;-89
2022/01/25 06:31:39;;;;;;;84.40;28.48;;;;;;;-1.64;83.81;93878.66;4998554;28;20046;-89
2022/01/25 06:34:43;;;;;;;73.50;27.50;;;;;;;-1.13;83.12;93945.50;4998206;28;20403;-89
2022/01/25 06:37:15;;;;;;;72.90;26.33;;;;;;;-1.54;83.41;93889.44;4998226;28;20046;-89
2022/01/25 06:39:49;;;;;;;84.57;30.27;;;;;;;-1.34;83.74;93914.59;4998638;28;20471;-89
2022/01/25 06:45:46;;;;;;;73.85;24.30;;;;;;;-1.29;83.37;93917.44;5016896;28;20506;-89
2022/01/25 06:48:11;;;;;;;70.22;25.75;;;;;;;-1.26;83.52;93925.59;4998702;28;20041;-90
2022/01/25 06:50:37;;;;;;;79.00;28.15;;;;;;;-1.11;83.38;93950.47;4966227;28;20133;-89
2022/01/25 06:53:10;;;;;;;73.38;26.05;;;;;;;-1.16;83.35;93939.94;4965975;28;20043;-90
2022/01/25 06:55:43;;;;;;;73.50;27.02;;;;;;;-1.48;82.73;93893.88;5016092;28;20045;-89
2022/01/25 06:58:14;;;;;;;68.82;26.45;;;;;;;-1.44;82.65;93901.22;4967720;28;20466;-89
2022/01/25 07:00:45;;;;;;;72.25;27.42;;;;;;;-1.15;83.11;93944.09;5002440;28;20065;-90
2022/01/25 07:03:36;;;;;;;76.60;27.05;;;;;;;-1.19;83.43;93917.97;4977507;28;20403;-90
2022/01/25 07:06:05;;;;;;;70.88;28.00;;;;;;;-1.41;82.76;93883.69;4978694;28;20042;-90
2022/01/25 07:08:33;;;;;;;73.65;26.88;;;;;;;-1.24;82.55;93909.19;4994775;28;20399;-90
2022/01/25 07:11:09;;;;;;;67.28;25.80;;;;;;;-1.17;82.74;93918.59;4978474;28;20057;-90
2022/01/25 07:13:35;;;;;;;86.95;28.85;;;;;;;-1.25;82.35;93913.53;4978111;28;20038;-90
2022/01/25 07:16:09;;;;;;;75.35;28.75;;;;;;;-1.30;82.98;93883.25;4978116;28;20383;-90
2022/01/25 07:18:45;;;;;;;;;;;;;;;;;;;;;
2022/01/25 07:21:11;;;;;;;76.20;27.00;;;;;;;-1.27;82.54;93882.09;4994232;28;20038;-89
2022/01/25 07:23:39;;;;;;;72.68;27.73;;;;;;;-1.13;82.49;93906.94;4994154;28;20061;-89
2022/01/25 07:26:05;;;;;;;61.72;25.55;;;;;;;-1.37;82.28;93873.88;4994099;28;20054;-90
2022/01/25 07:28:36;;;;;;;80.60;27.15;;;;;;;-1.01;82.65;93927.88;4974167;28;20060;-90
2022/01/25 07:31:06;;;;;;;72.05;26.02;;;;;;;-1.15;82.50;93902.97;4959036;28;20444;-89
2022/01/25 07:33:32;;;;;;;81.28;27.60;;;;;;;-1.01;82.20;93919.34;4974434;28;20031;-89
2022/01/25 07:36:11;;;;;;;66.53;25.42;;;;;;;-1.24;82.33;93879.16;4974833;28;20031;-90
2022/01/25 07:38:40;;;;;;;75.43;25.15;;;;;;;-1.21;82.21;93870.31;4975183;28;20047;-90
2022/01/25 07:41:08;;;;;;;70.35;27.17;;;;;;;-0.96;81.70;93906.78;4993685;28;20034;-90
2022/01/25 07:43:46;;;;;;;65.10;24.00;;;;;;;-0.93;81.45;93901.25;4994069;28;20511;-89
2022/01/25 07:46:14;;;;;;;72.47;25.73;;;;;;;-0.75;81.40;93929.16;4993896;28;20121;-89
2022/01/25 07:48:42;;;;;;;69.60;25.58;;;;;;;-0.92;80.79;93892.59;4993465;28;20037;-89
2022/01/25 07:51:08;;;;;;;67.70;24.20;;;;;;;-0.87;81.11;93901.34;4979085;28;20045;-89
2022/01/25 07:53:49;;;;;;;69.38;25.63;;;;;;;-1.03;81.12;93870.72;4958780;28;20094;-90
2022/01/25 07:56:17;;;;;;;66.82;23.90;;;;;;;-0.85;80.95;93885.72;4958629;28;20082;-89
2022/01/25 07:58:53;;;;;;;;;;;;;;;;;;;;;
2022/01/25 08:01:24;;;;;;;65.55;24.63;;;;;;;-0.58;80.54;93904.00;4997135;28;20042;-92
2022/01/25 08:03:50;;;;;;;69.60;25.83;;;;;;;-0.58;80.33;93909.16;4977959;28;20145;-90
2022/01/25 08:06:20;;;;;;;70.85;23.52;;;;;;;-0.82;80.26;93857.06;4977198;28;20158;-90
2022/01/25 08:09:08;;;;;;;65.63;25.48;;;;;;;-0.68;79.95;93874.22;4993282;28;20034;-89
2022/01/25 08:11:35;;;;;;;60.47;22.83;;;;;;;-0.51;79.41;93897.16;4993115;28;20036;-89
2022/01/25 08:14:19;;;;;;;64.13;24.80;;;;;;;-0.61;79.56;93869.13;4976816;28;20041;-90
2022/01/25 08:16:51;;;;;;;66.18;25.20;;;;;;;-0.30;79.58;93902.28;4977412;28;20038;-90
2022/01/25 08:19:44;;;;;;;62.22;22.45;;;;;;;-0.16;78.21;93897.25;4994484;28;20042;-90
2022/01/25 08:22:25;;;;;;;;;;;;;;;;;;;;;
2022/01/25 08:24:56;;;;;;;68.93;24.60;;;;;;;0.09;77.49;93900.22;4993198;28;20077;-90
2022/01/25 08:27:24;;;;;;;58.30;22.75;;;;;;;0.24;76.69;93898.34;4993345;28;20121;-90
2022/01/25 08:29:57;;;;;;;63.10;24.42;;;;;;;0.47;75.98;93905.81;4993250;28;20471;-90
2022/01/25 08:32:37;;;;;;;69.32;25.30;;;;;;;0.39;74.75;93854.47;4961973;28;20093;-90
2022/01/25 08:35:21;;;;;;;62.53;23.83;;;;;;;0.73;74.04;93847.69;4960658;28;20496;-90
2022/01/25 08:37:51;;;;;;;61.20;22.40;;;;;;;1.18;72.36;93850.59;4958090;28;20042;-90
2022/01/25 08:40:19;;;;;;;66.70;24.05;;;;;;;3.38;65.83;93858.00;4989574;28;20045;-90
2022/01/25 08:42:50;;;;;;;60.92;23.92;;;;;;;5.28;59.65;93841.13;4973900;28;20039;-90
2022/01/25 08:45:24;;;;;;;69.75;23.65;;;;;;;6.07;55.52;93849.59;4973820;28;20035;-90
2022/01/25 08:47:57;;;;;;;67.50;24.50;;;;;;;5.36;56.65;93841.59;4958028;28;20047;-90
2022/01/25 08:50:26;;;;;;;65.22;24.10;;;;;;;4.52;58.02;93836.19;4958101;28;20395;-91
2022/01/25 08:53:02;;;;;;;67.38;24.17;;;;;;;4.04;60.30;93857.56;4979323;28;20043;-90
2022/01/25 08:55:35;;;;;;;59.97;24.27;;;;;;;3.33;61.36;93840.53;4976573;28;20043;-90
2022/01/25 09:01:26;;;;;;;66.15;24.75;;;;;;;2.60;64.95;93856.34;4973699;28;20070;-90
2022/01/25 09:04:06;;;;;;;71.47;25.75;;;;;;;2.44;65.87;93880.84;4961287;28;20050;-90
2022/01/25 09:06:40;;;;;;;75.18;28.63;;;;;;;1.88;68.74;93838.97;4958751;28;20043;-90
2022/01/25 09:09:52;;;;;;;59.63;24.27;;;;;;;2.00;69.79;93902.94;4977307;28;20077;-90
2022/01/25 09:12:20;;;;;;;68.05;24.52;;;;;;;2.13;69.22;93902.16;4974674;28;20041;-90
2022/01/25 09:14:46;;;;;;;62.13;23.80;;;;;;;2.13;68.68;93891.81;4989791;28;20026;-90
2022/01/25 09:17:12;;;;;;;68.28;25.00;;;;;;;2.22;68.73;93906.13;4941211;28;20497;-90
2022/01/25 09:19:42;;;;;;;68.32;24.25;;;;;;;2.04;67.36;93866.19;4973275;28;20039;-89
2022/01/25 09:22:09;;;;;;;60.55;22.52;;;;;;;1.94;67.55;93865.78;4974848;28;20035;-90
2022/01/25 09:24:52;;;;;;;68.85;25.50;;;;;;;2.07;68.70;93872.72;4957131;28;20078;-90
2022/01/25 09:27:20;;;;;;;72.90;28.42;;;;;;;1.92;70.58;93870.38;4973112;28;20049;-90
2022/01/25 09:29:55;;;;;;;73.43;29.88;;;;;;;2.07;69.95;93876.13;4957560;28;20089;-90
2022/01/25 09:32:33;;;;;;;54.15;22.88;;;;;;;2.03;70.15;93893.00;4973742;28;20366;-90
2022/01/25 09:34:59;;;;;;;69.35;27.38;;;;;;;1.74;70.87;93850.28;4973501;28;20495;-90
2022/01/25 09:37:28;;;;;;;61.33;21.33;;;;;;;1.73;69.73;93853.06;4957461;28;20042;-90
2022/01/25 09:39:56;;;;;;;64.57;25.55;;;;;;;1.49;71.79;93849.25;4979160;28;20074;-90
2022/01/25 09:42:30;;;;;;;46.65;20.58;;;;;;;1.27;71.91;93835.75;4975710;28;20027;-91
2022/01/25 09:45:15;;;;;;;26.00;9.05;;;;;;;1.42;69.77;93829.44;4992641;28;20059;-90
2022/01/25 09:47:47;;;;;;;52.60;21.65;;;;;;;1.38;72.10;93859.19;4976550;28;20094;-90
2022/01/25 09:50:26;;;;;;;59.35;25.02;;;;;;;1.93;70.63;93855.66;4992936;28;20039;-90
2022/01/25 09:53:04;;;;;;;36.90;17.23;;;;;;;1.97;70.45;93849.91;4994231;28;20058;-89
2022/01/25 09:55:58;;;;;;;75.32;27.65;;;;;;;1.98;70.48;93842.94;5003393;28;20042;-91
2022/01/25 09:58:34;;;;;;;75.65;29.83;;;;;;;2.31;68.40;93837.72;4983967;28;20125;-91
2022/01/25 10:01:16;;;;;;;55.20;24.98;;;;;;;2.08;70.49;93874.34;4981740;28;20049;-91
2022/01/25 10:05:04;;;;;;;33.72;11.50;;;;;;;1.82;71.62;93896.59;4964455;28;20066;-91
2022/01/25 10:07:41;;;;;;;56.92;23.90;;;;;;;1.67;72.08;93872.75;4980462;28;20038;-91
2022/01/25 10:10:20;;;;;;;78.28;26.83;;;;;;;2.19;70.46;93845.31;4996307;28;20042;-91
2022/01/25 10:13:22;;;;;;;;;;;;;;;;;;;;;
2022/01/25 10:16:06;;;;;;;51.00;21.45;;;;;;;3.39;66.41;93888.88;4996118;28;20537;-91
2022/01/25 10:18:47;;;;;;;71.55;27.73;;;;;;;3.27;66.44;93893.13;4980141;28;20042;-91
2022/01/25 10:25:45;;;;;;;73.38;26.40;;;;;;;3.70;64.47;93845.88;4918151;29;20083;-91
2022/01/25 10:28:26;;;;;;;68.95;27.30;;;;;;;3.97;63.77;93836.91;4901920;29;20068;-91
2022/01/25 10:31:14;;;;;;;59.58;24.98;;;;;;;4.11;62.70;93808.28;4887490;29;20095;-91
2022/01/25 10:33:51;;;;;;;67.75;26.42;;;;;;;4.62;59.91;93804.56;4983115;28;20049;-91
2022/01/25 10:36:43;;;;;;;;;;;;;;;;;;;;;
2022/01/25 10:39:14;;;;;;;38.08;17.02;;;;;;;5.10;58.15;93816.78;4996623;28;20058;-91
2022/01/25 10:41:45;;;;;;;70.70;26.63;;;;;;;5.13;58.71;93828.50;4980458;28;20523;-90
2022/01/25 10:47:58;;;;;;;70.07;17.90;;;;;;;3.94;61.86;93821.78;4996562;28;20045;-91
2022/01/25 10:50:42;;;;;;;46.10;19.67;;;;;;;4.57;59.25;93804.41;4979218;28;20104;-90
2022/01/25 10:53:29;;;;;;;63.58;26.65;;;;;;;4.74;59.96;93843.56;4975760;28;20047;-91
2022/01/25 10:56:09;;;;;;;65.20;26.17;;;;;;;4.51;62.13;93818.25;4979638;28;20046;-90
2022/01/25 10:59:23;;;;;;;49.40;21.63;;;;;;;5.29;57.48;93806.34;4983854;28;20050;-90
2022/01/25 11:05:26;;;;;;;63.03;25.42;;;;;;;5.12;57.99;93786.19;4950842;29;20584;-91
2022/01/25 11:11:38;;;;;;;54.28;24.70;;;;;;;5.21;57.27;93784.88;4956322;28;20046;-90
2022/01/25 11:17:22;;;;;;;;;;;;;;;;;;;;;
2022/01/25 11:20:13;;;;;;;33.88;15.95;;;;;;;5.35;57.11;93756.13;4970565;28;20061;-90
2022/01/25 11:29:51;;;;;;;;;;;;;;;;;;;;;
2022/01/25 11:36:02;;;;;;;54.08;21.38;;;;;;;5.32;58.40;93809.28;4976378;28;20043;-92
2022/01/25 11:38:55;;;;;;;58.38;25.45;;;;;;;5.64;58.81;93828.00;4974957;28;20038;-90
2022/01/25 11:41:42;;;;;;;46.65;17.90;;;;;;;4.75;59.83;93781.09;4971045;28;20125;-90
2022/01/25 11:44:22;;;;;;;62.53;24.45;;;;;;;4.59;61.25;93823.16;4973250;28;20069;-91
2022/01/25 11:46:57;;;;;;;64.45;26.55;;;;;;;4.96;58.94;93763.47;4956341;28;20043;-91
2022/01/25 11:49:23;;;;;;;55.25;22.42;;;;;;;4.91;59.75;93790.06;4975941;28;20041;-91
2022/01/25 11:52:13;;;;;;;33.28;15.10;;;;;;;5.00;59.96;93808.72;4955790;28;20030;-90
2022/01/25 11:54:40;;;;;;;43.60;19.42;;;;;;;4.51;60.53;93779.38;4971867;28;20046;-90
2022/01/25 11:57:10;;;;;;;56.95;22.55;;;;;;;4.57;60.52;93778.47;4972530;28;20054;-91
2022/01/25 11:59:40;;;;;;;52.20;21.27;;;;;;;3.89;63.27;93780.16;4971498;28;20420;-90
2022/01/25 12:02:05;;;;;;;62.80;23.77;;;;;;;4.53;61.54;93792.91;4970067;28;20039;-90
2022/01/25 12:04:31;;;;;;;56.88;25.08;;;;;;;4.76;61.14;93781.88;4975651;28;20054;-90
2022/01/25 12:07:08;;;;;;;61.00;24.35;;;;;;;5.03;59.97;93771.16;4972183;28;20065;-91
2022/01/25 12:09:51;;;;;;;61.58;23.25;;;;;;;4.89;61.10;93780.91;4971796;28;20039;-90
2022/01/25 12:12:22;;;;;;;31.85;14.60;;;;;;;4.55;59.95;93744.22;4958752;28;20047;-90
2022/01/25 12:14:54;;;;;;;59.58;24.48;;;;;;;5.24;59.75;93754.28;4990540;28;20026;-90
2022/01/25 12:17:24;;;;;;;41.05;19.25;;;;;;;5.60;57.84;93766.34;4993350;28;20557;-90
2022/01/25 12:19:55;;;;;;;42.85;19.73;;;;;;;5.14;57.93;93721.88;4960897;28;20545;-91
2022/01/25 12:22:29;;;;;;;51.67;20.85;;;;;;;4.58;60.58;93739.38;4975384;28;20048;-90
2022/01/25 12:25:14;;;;;;;37.40;14.52;;;;;;;3.96;61.50;93716.13;4977308;28;20039;-90
2022/01/25 12:27:53;;;;;;;45.53;19.33;;;;;;;4.22;61.55;93677.97;4992051;28;20074;-90
2022/01/25 12:30:34;;;;;;;63.92;23.70;;;;;;;5.49;59.04;93744.50;4976387;28;20157;-91
2022/01/25 12:33:07;;;;;;;22.95;11.60;;;;;;;4.98;58.24;93686.19;4991285;28;20077;-89
2022/01/25 12:35:45;;;;;;;55.63;19.88;;;;;;;5.33;59.55;93729.59;4991453;28;20137;-90
2022/01/25 12:38:24;;;;;;;47.00;19.35;;;;;;;4.85;59.98;93733.06;4990543;28;20466;-91
2022/01/25 12:41:09;;;;;;;63.70;25.45;;;;;;;5.28;57.95;93656.78;4971393;28;20038;-91
2022/01/25 12:43:53;;;;;;;27.73;13.95;;;;;;;4.70;59.21;93653.03;4970678;28;20158;-90
2022/01/25 12:46:40;;;;;;;42.92;20.30;;;;;;;4.77;59.33;93667.50;4988427;28;20516;-91
2022/01/25 12:49:20;;;;;;;44.45;19.25;;;;;;;4.27;61.36;93679.91;4984907;28;20093;-90
2022/01/25 12:51:55;;;;;;;63.08;24.77;;;;;;;5.29;59.01;93679.94;4975538;28;20038;-90
2022/01/25 12:54:28;;;;;;;56.00;22.20;;;;;;;5.42;58.01;93634.75;4990001;28;20412;-91
2022/01/25 12:57:13;;;;;;;62.75;26.98;;;;;;;4.84;59.64;93644.06;4990633;28;20266;-91
2022/01/25 12:59:39;;;;;;;54.35;23.13;;;;;;;5.56;57.26;93646.53;4990117;28;20109;-91
2022/01/25 13:02:10;;;;;;;68.30;24.83;;;;;;;5.66;56.93;93666.72;4990355;28;20069;-91
2022/01/25 13:04:40;;;;;;;38.67;16.83;;;;;;;5.85;56.83;93654.38;4937152;29;20085;-90
2022/01/25 13:07:12;;;;;;;54.60;22.50;;;;;;;5.59;57.01;93647.88;4968255;28;20031;-90
2022/01/25 13:09:48;;;;;;;42.95;18.08;;;;;;;5.50;57.30;93664.81;4969847;28;20070;-90
2022/01/25 13:12:27;;;;;;;54.20;25.17;;;;;;;5.32;57.53;93621.56;4968435;28;20043;-90
2022/01/25 13:15:15;;;;;;;60.05;23.33;;;;;;;5.10;58.29;93608.34;4946161;28;20050;-90
2022/01/25 13:17:43;;;;;;;36.60;16.35;;;;;;;5.52;57.45;93624.59;4971277;28;20492;-90
2022/01/25 13:20:13;;;;;;;60.97;25.35;;;;;;;4.94;58.73;93594.22;4971213;28;20043;-91
2022/01/25 13:22:59;;;;;;;52.10;22.02;;;;;;;5.04;57.47;93602.22;4967191;28;20062;-90
2022/01/25 13:25:30;;;;;;;59.00;21.40;;;;;;;5.03;57.98;93594.69;4971531;28;20082;-90
2022/01/25 13:28:20;;;;;;;36.92;17.98;;;;;;;5.08;57.78;93603.34;4949873;28;20054;-90
2022/01/25 13:30:53;;;;;;;46.97;18.35;;;;;;;5.11;58.46;93592.53;4954535;28;20054;-90
2022/01/25 13:33:23;;;;;;;49.50;19.98;;;;;;;5.80;56.46;93589.31;4974684;28;20138;-90
2022/01/25 13:35:53;;;;;;;58.67;23.70;;;;;;;6.01;55.83;93591.34;4974593;28;20424;-90
2022/01/25 13:38:28;;;;;;;47.25;19.20;;;;;;;6.03;55.33;93593.69;4958798;28;20019;-90
2022/01/25 13:41:41;;;;;;;58.75;24.02;;;;;;;6.14;55.73;93649.28;4974745;28;20544;-90
2022/01/25 13:47:05;;;;;;;;;;;;;;;;;;;;;
2022/01/25 13:49:58;;;;;;;49.50;22.35;;;;;;;5.81;56.33;93628.09;4955442;29;20061;-90
2022/01/25 13:52:31;;;;;;;50.38;20.95;;;;;;;5.80;55.64;93581.53;4959080;28;20043;-91
2022/01/25 13:55:10;;;;;;;52.90;21.83;;;;;;;5.51;56.76;93596.25;4957867;28;20439;-91
2022/01/25 13:57:56;;;;;;;56.55;23.45;;;;;;;5.49;57.01;93606.06;4982079;28;20046;-91
2022/01/25 14:00:36;;;;;;;43.20;20.47;;;;;;;5.56;56.60;93553.00;4975101;28;20046;-90
2022/01/25 14:03:04;;;;;;;62.65;24.85;;;;;;;6.01;55.88;93612.16;4969966;28;20412;-91
2022/01/25 14:05:38;;;;;;;62.53;20.95;;;;;;;5.10;57.52;93564.22;4994588;28;20034;-90
2022/01/25 14:08:07;;;;;;;55.30;23.27;;;;;;;5.44;56.92;93565.22;4993928;28;20042;-90
2022/01/25 14:10:45;;;;;;;36.95;13.68;;;;;;;5.91;55.80;93604.09;4977034;28;20134;-90
2022/01/25 14:24:30;;;;;;;57.45;23.15;;;;;;;6.68;53.84;93602.94;4992449;28;20499;-91
2022/01/25 14:27:19;;;;;;;61.53;23.48;;;;;;;7.00;54.00;93628.47;4977165;28;20042;-90
2022/01/25 14:29:51;;;;;;;58.17;24.75;;;;;;;7.12;52.96;93597.16;4993979;28;20507;-90
2022/01/25 14:32:31;;;;;;;49.55;22.45;;;;;;;6.79;52.29;93563.06;4993858;28;20053;-90
2022/01/25 14:35:05;;;;;;;65.22;25.45;;;;;;;6.95;52.48;93576.31;4984386;28;20030;-89
2022/01/25 14:37:46;;;;;;;63.22;24.17;;;;;;;6.73;52.69;93579.59;4976467;28;20076;-90
2022/01/25 14:40:13;;;;;;;56.38;23.83;;;;;;;6.84;52.84;93620.38;4993803;28;20100;-89
2022/01/25 14:42:46;;;;;;;59.35;22.98;;;;;;;6.22;53.36;93560.53;4992509;28;20380;-90